Airfield :
LOGIN :

Register | Disclaimer

   EN    FR    IT 

 










Legend :    VFR   Marginal VFR   IFR   Intensive IFR   Very Intensive IFR
Visi :
Ceiling :
>= 8 km
>= 3000ft
5 to 8 km
1000 to 3000 ft
1500m to 5 km
500 to 1000 ft
800 to 1500m
200 to 500 ft
< 800m
< 200 ft
Symbols :   Thunderstorms  Fog  Heavy snow  Heavy precipitations  Wind > 20 kt
SIGMETs :     Misc.  Thunderstorms  Icing  Turbulence  Mountain Waves  Volcanic Ashes






- Airport Elevation : 7 ft
- IATA code : POW


LJPZ - Portoroz

CURRENT METAR :
  • 050000Z AUTO 12005KT 9999 SCT060/// BKN075/// 07/05 Q1018

EXPIRED METARs :
  • 042330Z AUTO 11002KT 9999 BKN065/// 07/05 Q1018
  • 042300Z AUTO 12003KT 9999 BKN065/// 07/05 Q1018
  • 042230Z AUTO 10002KT 9999 BKN070/// 08/05 Q1018
  • 042200Z AUTO 00000KT 9999 BKN065/// 08/05 Q1019
  • 042130Z AUTO 13001KT 9999 SCT065/// BKN120/// 07/04 Q1019

TAF TAF LJPZ
Valid from the 05 at 00:00 until the 05 at 09:00 UTC


042300Z 0500/0509 12005KT 9999 BKN060



MET'MAP, your aeronautical weather chart ! - Copyright ORBIFLY December 2007 - Disclaimer

ORBIFLY MET'MAP TEAM :

Programming & Development : Alexandra Zaïnal
Concept & original design : Baudouin d'Aumeries
Assistance for programming : Marc-Olivier Méhu
Technical & hardware support : Manuel Goepfert

Contact : metmap@orbifly.com




SOURCES & CREDITS :

   NOAA